Terminal Aerodrome Forecast
Issued by NWS Tampa Bay Area, FL

Home | Current Version | Previous Version | Text Only | Print | Product List | Glossary Off
Versions: 1 2 3 4 5 6 7 8 9 10 11 12 13 14 15 16 17 18 19 20 21 22 23

000
FTUS42 KTBW 072323
TAFSRQ
TAF
KSRQ 072323Z 0800/0824 36005KT P6SM FEW300
     FM080600 04005KT P6SM FEW300
     FM080900 05006KT P6SM SCT010 SCT080
     FM081400 01008KT P6SM SCT015 SCT080
     FM081800 35009KT P6SM SCT030 BKN070 BKN150=

USA.gov is the U.S. government's official web portal to all federal, state and local government web resources and services.